createdAt,value
2023-01-26T00:00:01.629Z,65.88
2023-01-26T00:02:03.178Z,60.33
2023-01-26T00:04:04.803Z,56.45
2023-01-26T00:06:08.063Z,58.40
2023-01-26T00:08:10.061Z,61.17
2023-01-26T00:10:12.665Z,60.03
2023-01-26T00:12:14.330Z,60.78
2023-01-26T00:14:15.787Z,63.65
2023-01-26T00:16:17.333Z,60.53
2023-01-26T00:18:18.872Z,60.75
2023-01-26T00:20:20.350Z,60.40
2023-01-26T00:22:22.566Z,57.95
2023-01-26T00:24:24.127Z,64.00
2023-01-26T00:26:26.953Z,61.10
2023-01-26T00:28:29.096Z,59.00
2023-01-26T00:30:30.578Z,58.33
2023-01-26T00:32:32.020Z,60.35
2023-01-26T00:34:33.467Z,57.30
2023-01-26T00:36:37.640Z,56.20
2023-01-26T00:38:39.980Z,58.38
2023-01-26T00:40:41.446Z,58.03
2023-01-26T00:42:42.883Z,57.47
2023-01-26T00:44:44.782Z,61.55
2023-01-26T00:46:46.316Z,60.15
2023-01-26T00:48:47.750Z,63.13
2023-01-26T00:50:51.117Z,59.40
2023-01-26T00:52:53.865Z,60.28
2023-01-26T00:54:55.341Z,60.83
2023-01-26T00:56:56.953Z,66.68
2023-01-26T00:58:58.403Z,61.70
2023-01-26T01:00:59.908Z,60.83
2023-01-26T01:03:01.980Z,59.67
2023-01-26T01:05:03.800Z,61.83
2023-01-26T01:07:05.665Z,65.75
2023-01-26T01:09:07.255Z,60.33
2023-01-26T01:11:11.225Z,59.17
2023-01-26T01:13:12.676Z,59.92
2023-01-26T01:15:14.429Z,61.08
2023-01-26T01:17:15.895Z,64.20
2023-01-26T01:19:18.473Z,62.85
2023-01-26T01:21:20.295Z,62.60
2023-01-26T01:23:21.940Z,62.10
2023-01-26T01:25:23.372Z,60.45
2023-01-26T01:27:25.201Z,65.13
2023-01-26T01:29:26.717Z,60.80
2023-01-26T01:31:29.410Z,59.10
2023-01-26T01:33:30.992Z,57.10
2023-01-26T01:35:34.479Z,63.17
2023-01-26T01:37:36.874Z,59.30
2023-01-26T01:39:38.374Z,65.10
2023-01-26T01:41:39.880Z,57.97
2023-01-26T01:43:41.875Z,61.53
2023-01-26T01:45:47.805Z,57.47
2023-01-26T01:47:49.333Z,66.40
2023-01-26T01:49:52.948Z,58.80
2023-01-26T01:51:59.849Z,61.22
2023-01-26T01:54:07.829Z,60.47
2023-01-26T01:56:15.665Z,62.70
2023-01-26T01:58:17.247Z,66.80
2023-01-26T02:00:21.651Z,63.47
2023-01-26T02:02:23.200Z,62.03
2023-01-26T02:04:25.395Z,66.75
2023-01-26T02:06:33.254Z,66.30
2023-01-26T02:08:39.005Z,66.40
2023-01-26T02:10:42.225Z,65.03
2023-01-26T02:12:44.405Z,62.95
2023-01-26T02:14:46.483Z,60.78
2023-01-26T02:16:47.932Z,61.65
2023-01-26T02:18:49.623Z,68.85
2023-01-26T02:20:55.241Z,69.30
2023-01-26T02:23:20.768Z,69.30
2023-01-26T02:25:37.147Z,66.75
2023-01-26T02:27:38.991Z,66.93
2023-01-26T02:29:41.901Z,67.15
2023-01-26T02:31:43.798Z,61.20
2023-01-26T02:33:45.604Z,64.15
2023-01-26T02:35:47.105Z,59.92
2023-01-26T02:37:48.572Z,63.17
2023-01-26T02:40:15.545Z,61.22
2023-01-26T02:42:35.692Z,69.80
2023-01-26T02:44:38.465Z,61.67
2023-01-26T02:46:40.034Z,62.15
2023-01-26T02:49:00.306Z,65.25
2023-01-26T02:51:01.791Z,63.38
2023-01-26T02:53:04.010Z,70.43
2023-01-26T02:55:25.181Z,69.95
2023-01-26T02:57:27.198Z,72.85
2023-01-26T02:59:28.843Z,70.57
2023-01-26T03:01:32.488Z,64.70
2023-01-26T03:03:42.796Z,67.65
2023-01-26T03:05:44.689Z,69.85
2023-01-26T03:07:46.180Z,66.85
2023-01-26T03:09:47.683Z,71.45
2023-01-26T03:11:49.307Z,67.80
2023-01-26T03:13:50.775Z,68.45
2023-01-26T03:15:55.125Z,68.03
2023-01-26T03:18:33.618Z,66.22
2023-01-26T03:23:14.588Z,69.35
2023-01-26T03:25:34.373Z,66.10
2023-01-26T03:27:42.636Z,72.18
2023-01-26T03:29:44.748Z,73.15
2023-01-26T03:31:46.283Z,66.60
2023-01-26T03:33:47.738Z,67.43
2023-01-26T03:35:52.193Z,66.28
2023-01-26T03:37:54.873Z,71.03
2023-01-26T03:40:14.952Z,70.82
2023-01-26T03:42:35.289Z,70.72
2023-01-26T03:44:55.096Z,68.13
2023-01-26T03:47:14.958Z,70.63
2023-01-26T03:49:34.813Z,66.22
2023-01-26T03:51:55.167Z,64.93
2023-01-26T03:54:14.774Z,70.57
2023-01-26T03:56:20.011Z,66.93
2023-01-26T03:58:21.453Z,69.93
2023-01-26T04:00:22.953Z,62.05
2023-01-26T04:02:42.970Z,74.32
2023-01-26T04:05:02.741Z,71.78
2023-01-26T04:07:22.567Z,63.15
2023-01-26T04:09:24.108Z,64.97
2023-01-26T04:11:25.552Z,71.93
2023-01-26T04:13:45.649Z,68.68
2023-01-26T04:16:08.492Z,74.82
2023-01-26T04:18:28.490Z,67.38
2023-01-26T04:20:48.320Z,64.50
2023-01-26T04:22:49.799Z,70.65
2023-01-26T04:24:51.360Z,67.57
2023-01-26T04:26:52.851Z,71.97
2023-01-26T04:28:54.332Z,64.07
2023-01-26T04:30:55.772Z,69.00
2023-01-26T04:32:57.226Z,72.97
2023-01-26T04:34:58.752Z,69.20
2023-01-26T04:37:00.179Z,66.00
2023-01-26T04:39:01.947Z,64.30
2023-01-26T04:41:03.554Z,65.13
2023-01-26T04:43:05.053Z,69.80
2023-01-26T04:45:06.990Z,63.47
2023-01-26T04:47:08.481Z,64.00
2023-01-26T04:49:10.319Z,66.38
2023-01-26T04:51:14.443Z,65.25
2023-01-26T04:53:15.905Z,68.15
2023-01-26T04:55:17.366Z,59.75
2023-01-26T04:57:23.237Z,60.28
2023-01-26T04:59:24.774Z,62.80
2023-01-26T05:01:26.519Z,62.20
2023-01-26T05:03:28.097Z,61.47
2023-01-26T05:05:29.551Z,63.92
2023-01-26T05:07:31.063Z,58.17
2023-01-26T05:09:32.637Z,67.07
2023-01-26T05:11:34.123Z,62.15
2023-01-26T05:13:36.036Z,58.50
2023-01-26T05:15:37.987Z,60.88
2023-01-26T05:17:39.434Z,59.20
2023-01-26T05:19:40.981Z,63.17
2023-01-26T05:21:42.429Z,53.85
2023-01-26T05:23:43.898Z,51.83
2023-01-26T05:25:45.360Z,54.28
2023-01-26T05:27:47.318Z,58.72
2023-01-26T05:29:49.829Z,66.13
2023-01-26T05:31:51.360Z,57.58
2023-01-26T05:33:52.889Z,57.45
2023-01-26T05:35:54.579Z,59.15
2023-01-26T05:37:56.361Z,61.28
2023-01-26T05:39:57.863Z,60.55
2023-01-26T05:41:59.368Z,52.90
2023-01-26T05:44:00.836Z,52.03
2023-01-26T05:46:02.899Z,56.88
2023-01-26T05:48:04.548Z,56.33
2023-01-26T05:50:06.954Z,54.05
2023-01-26T05:52:26.384Z,54.15
2023-01-26T05:54:27.897Z,54.70
2023-01-26T05:56:29.354Z,54.67
2023-01-26T05:58:30.810Z,58.20
2023-01-26T06:00:32.325Z,49.97
2023-01-26T06:02:33.881Z,47.78
2023-01-26T06:04:35.424Z,50.05
2023-01-26T06:06:36.890Z,48.08
2023-01-26T06:08:38.325Z,51.85
2023-01-26T06:10:41.219Z,47.55
2023-01-26T06:12:43.108Z,39.17
2023-01-26T06:14:47.220Z,46.60
2023-01-26T06:16:49.121Z,43.97
2023-01-26T06:18:50.587Z,47.92
2023-01-26T06:20:52.054Z,43.78
2023-01-26T06:22:53.549Z,40.42
2023-01-26T06:24:55.119Z,41.72
2023-01-26T06:26:56.593Z,41.10
2023-01-26T06:28:58.083Z,44.20
2023-01-26T06:31:01.159Z,39.15
2023-01-26T06:33:02.781Z,36.10
2023-01-26T06:35:07.130Z,36.83
2023-01-26T06:37:08.939Z,41.13
2023-01-26T06:39:12.245Z,35.25
2023-01-26T06:41:14.482Z,37.55
2023-01-26T06:43:15.970Z,37.90
2023-01-26T06:45:18.182Z,32.92
2023-01-26T06:47:19.706Z,34.00
2023-01-26T06:49:21.151Z,31.83
2023-01-26T06:51:44.266Z,31.05
2023-01-26T06:53:53.326Z,33.15
2023-01-26T06:55:54.839Z,31.60
2023-01-26T06:57:56.309Z,27.85
2023-01-26T06:59:57.983Z,32.42
2023-01-26T07:01:59.499Z,29.90
2023-01-26T07:04:00.953Z,38.28
2023-01-26T07:06:02.482Z,32.42
2023-01-26T07:08:06.403Z,34.78
2023-01-26T07:10:08.804Z,35.40
2023-01-26T07:12:10.523Z,32.45
2023-01-26T07:14:11.982Z,28.73
2023-01-26T07:16:15.347Z,31.85
2023-01-26T07:18:16.925Z,30.88
2023-01-26T07:20:18.526Z,28.00
2023-01-26T07:22:19.995Z,33.00
2023-01-26T07:24:21.944Z,28.65
2023-01-26T07:26:23.696Z,27.08
2023-01-26T07:28:25.959Z,30.80
2023-01-26T07:30:27.452Z,28.90
2023-01-26T07:32:28.921Z,28.52
2023-01-26T07:34:30.385Z,29.85
2023-01-26T07:36:31.979Z,33.90
2023-01-26T07:38:34.444Z,29.45
2023-01-26T07:40:35.914Z,35.67
2023-01-26T07:42:37.449Z,32.58
2023-01-26T07:44:38.932Z,30.08
2023-01-26T07:46:41.425Z,31.80
2023-01-26T07:48:43.415Z,33.90
2023-01-26T07:50:47.258Z,29.75
2023-01-26T07:52:49.130Z,31.77
2023-01-26T07:54:51.500Z,32.80
2023-01-26T07:56:54.564Z,32.75
2023-01-26T07:58:56.051Z,26.98
2023-01-26T08:01:06.900Z,27.45
2023-01-26T08:03:08.450Z,30.13
2023-01-26T08:05:10.228Z,28.77
2023-01-26T08:07:11.684Z,26.30
2023-01-26T08:09:13.411Z,25.48
2023-01-26T08:11:14.864Z,26.45
2023-01-26T08:13:23.548Z,26.33
2023-01-26T08:15:28.640Z,26.20
2023-01-26T08:17:30.661Z,27.45
2023-01-26T08:19:32.182Z,29.27
2023-01-26T08:21:33.661Z,25.83
2023-01-26T08:23:35.449Z,33.38
2023-01-26T08:25:36.960Z,23.83
2023-01-26T08:27:38.403Z,25.00
2023-01-26T08:29:40.006Z,30.95
2023-01-26T08:31:41.500Z,27.23
2023-01-26T08:33:43.540Z,27.90
2023-01-26T08:35:45.047Z,25.80
2023-01-26T08:37:46.547Z,27.98
2023-01-26T08:39:48.001Z,29.80
2023-01-26T08:41:49.479Z,28.73
2023-01-26T08:43:51.260Z,34.95
2023-01-26T08:45:52.770Z,22.98
2023-01-26T08:47:54.267Z,25.38
2023-01-26T08:49:55.796Z,29.55
2023-01-26T08:51:57.273Z,29.58
2023-01-26T08:53:58.708Z,28.13
2023-01-26T08:56:04.995Z,25.75
2023-01-26T08:58:06.440Z,28.92
2023-01-26T09:00:08.780Z,28.13
2023-01-26T09:02:11.164Z,30.30
2023-01-26T09:04:12.644Z,26.27
2023-01-26T09:06:15.785Z,26.10
2023-01-26T09:08:17.320Z,25.58
2023-01-26T09:10:18.944Z,32.15
2023-01-26T09:12:20.435Z,26.88
2023-01-26T09:14:22.596Z,29.83
2023-01-26T09:16:24.965Z,31.42
2023-01-26T09:18:26.508Z,32.63
2023-01-26T09:20:28.800Z,25.92
2023-01-26T09:22:30.765Z,26.75
2023-01-26T09:24:32.310Z,27.27
2023-01-26T09:26:33.831Z,29.83
2023-01-26T09:28:35.343Z,36.00
2023-01-26T09:30:36.891Z,28.58
2023-01-26T09:32:38.461Z,30.33
2023-01-26T09:34:39.948Z,32.05
2023-01-26T09:36:41.612Z,34.05
2023-01-26T09:38:43.103Z,29.35
2023-01-26T09:41:06.470Z,32.10
2023-01-26T09:43:42.916Z,29.45
2023-01-26T09:46:06.193Z,34.08
2023-01-26T09:48:56.127Z,32.65
2023-01-26T09:51:07.442Z,69.10
2023-01-26T09:53:16.825Z,34.80
2023-01-26T09:55:21.866Z,33.50
2023-01-26T09:57:32.585Z,36.22
2023-01-26T09:59:43.146Z,40.60
2023-01-26T10:02:01.845Z,39.05
2023-01-26T10:06:29.078Z,52.85
2023-01-26T10:08:30.803Z,42.80
2023-01-26T10:10:36.448Z,46.33
2023-01-26T10:12:38.369Z,51.42
2023-01-26T10:14:45.382Z,52.35
2023-01-26T10:16:49.884Z,38.40
2023-01-26T10:18:59.344Z,55.15
2023-01-26T10:21:04.099Z,62.08
2023-01-26T10:23:22.156Z,45.13
2023-01-26T10:25:30.041Z,41.78
2023-01-26T10:27:31.505Z,38.03
2023-01-26T10:29:32.950Z,52.45
2023-01-26T10:31:34.560Z,48.80
2023-01-26T10:33:38.039Z,56.15
2023-01-26T10:35:39.517Z,62.85
2023-01-26T10:37:40.996Z,49.55
2023-01-26T10:40:12.162Z,60.33
2023-01-26T10:42:19.083Z,48.63
2023-01-26T10:44:31.917Z,48.22
2023-01-26T10:46:38.454Z,60.50
2023-01-26T10:48:51.133Z,46.50
2023-01-26T10:50:53.683Z,57.22
2023-01-26T10:53:03.390Z,59.00
2023-01-26T10:55:20.827Z,50.47
2023-01-26T10:57:24.976Z,37.70
2023-01-26T10:59:32.526Z,96.30
2023-01-26T11:01:52.468Z,62.45
2023-01-26T11:04:07.148Z,62.75
2023-01-26T11:06:16.987Z,55.38
2023-01-26T11:08:34.599Z,52.67
2023-01-26T11:10:38.772Z,51.50
2023-01-26T11:12:40.236Z,47.38
2023-01-26T11:14:41.694Z,60.95
2023-01-26T11:17:08.058Z,57.20
2023-01-26T11:19:15.561Z,48.10
2023-01-26T11:21:22.719Z,49.35
2023-01-26T11:23:37.663Z,52.90
2023-01-26T11:26:09.337Z,45.33
2023-01-26T11:28:41.244Z,60.58
2023-01-26T11:31:14.058Z,49.38
2023-01-26T11:33:48.997Z,43.50
2023-01-26T11:36:16.326Z,49.38
2023-01-26T11:38:39.217Z,55.10
2023-01-26T11:40:49.333Z,48.17
2023-01-26T11:43:21.837Z,43.42
2023-01-26T11:45:33.386Z,59.78
2023-01-26T11:48:01.689Z,54.00
2023-01-26T11:50:14.976Z,58.13
2023-01-26T11:53:11.632Z,45.70
2023-01-26T11:55:45.582Z,44.25
2023-01-26T11:58:20.572Z,45.42
2023-01-26T12:00:31.076Z,53.38
2023-01-26T12:02:36.536Z,66.13
2023-01-26T12:04:45.433Z,59.20
2023-01-26T12:08:54.794Z,48.05
2023-01-26T12:11:22.321Z,60.38
2023-01-26T12:13:38.088Z,44.72
2023-01-26T12:15:47.326Z,49.58
2023-01-26T12:18:09.981Z,46.13
2023-01-26T12:20:45.485Z,44.05
2023-01-26T12:22:54.805Z,52.33
2023-01-26T12:25:28.680Z,46.38
2023-01-26T12:27:38.555Z,45.28
2023-01-26T12:29:55.071Z,51.70
2023-01-26T12:32:08.832Z,44.10
2023-01-26T12:34:13.411Z,54.08
2023-01-26T12:36:30.939Z,50.25
2023-01-26T12:39:09.568Z,53.83
2023-01-26T12:41:22.810Z,50.30
2023-01-26T12:43:47.515Z,54.25
2023-01-26T12:45:54.364Z,49.53
2023-01-26T12:48:36.368Z,57.95
2023-01-26T12:50:44.752Z,50.75
2023-01-26T12:52:53.436Z,49.15
2023-01-26T12:57:21.822Z,49.50
2023-01-26T12:59:46.435Z,46.03
2023-01-26T13:01:50.267Z,42.00
2023-01-26T13:04:09.083Z,44.03
2023-01-26T13:08:30.300Z,42.80
2023-01-26T13:10:46.054Z,40.67
2023-01-26T13:13:01.737Z,57.40
2023-01-26T13:15:06.547Z,41.13
2023-01-26T13:17:16.883Z,45.38
2023-01-26T13:19:52.624Z,57.60
2023-01-26T13:21:54.115Z,43.40
2023-01-26T13:23:55.707Z,44.03
2023-01-26T13:26:22.166Z,50.90
2023-01-26T13:28:28.098Z,49.03
2023-01-26T13:30:29.563Z,56.20
2023-01-26T13:32:31.097Z,45.90
2023-01-26T13:34:39.354Z,53.85
2023-01-26T13:36:45.393Z,39.00
2023-01-26T13:38:59.826Z,54.63
2023-01-26T13:41:07.194Z,49.72
2023-01-26T13:43:31.526Z,51.08
2023-01-26T13:45:39.551Z,43.65
2023-01-26T13:47:45.330Z,49.08
2023-01-26T13:49:46.799Z,51.72
2023-01-26T13:51:48.264Z,37.95
2023-01-26T13:54:07.707Z,55.53
2023-01-26T13:56:26.108Z,44.92
2023-01-26T13:58:28.052Z,41.95
2023-01-26T14:00:29.529Z,42.92
2023-01-26T14:02:34.643Z,48.35
2023-01-26T14:04:37.755Z,48.53
2023-01-26T14:06:39.499Z,46.38
2023-01-26T14:08:47.684Z,37.13
2023-01-26T14:10:49.526Z,49.03
2023-01-26T14:12:56.497Z,44.45
2023-01-26T14:15:01.744Z,42.67
2023-01-26T14:17:08.864Z,46.92
2023-01-26T14:19:17.563Z,33.92
2023-01-26T14:21:21.995Z,37.55
2023-01-26T14:23:26.922Z,44.22
2023-01-26T14:25:28.423Z,40.15
2023-01-26T14:27:41.668Z,38.28
2023-01-26T14:29:43.131Z,42.35
2023-01-26T14:31:48.161Z,46.20
2023-01-26T14:33:53.279Z,44.65
2023-01-26T14:36:01.464Z,31.90
2023-01-26T14:38:21.756Z,42.30
2023-01-26T14:40:24.890Z,34.58
2023-01-26T14:42:26.488Z,38.65
2023-01-26T14:44:27.987Z,36.50
2023-01-26T14:46:49.725Z,27.30
2023-01-26T14:48:59.217Z,21.55
2023-01-26T14:51:03.109Z,14.95
2023-01-26T14:53:06.678Z,10.25
2023-01-26T14:55:14.981Z,15.98
2023-01-26T14:57:20.358Z,11.32
2023-01-26T14:59:25.418Z,14.13
2023-01-26T15:01:27.983Z,10.90
2023-01-26T15:03:33.841Z,8.82
2023-01-26T15:05:38.734Z,10.43
2023-01-26T15:07:56.529Z,17.67
2023-01-26T15:09:58.144Z,12.80
2023-01-26T15:12:18.441Z,9.00
2023-01-26T15:14:48.283Z,10.23
2023-01-26T15:16:53.807Z,11.32
2023-01-26T15:19:06.040Z,12.30
2023-01-26T15:21:22.108Z,14.68
2023-01-26T15:23:33.151Z,10.82
2023-01-26T15:25:34.759Z,12.75
2023-01-26T15:27:36.971Z,15.75
2023-01-26T15:29:38.542Z,7.28
2023-01-26T15:31:42.819Z,16.20
2023-01-26T15:33:45.615Z,9.80
2023-01-26T15:35:57.782Z,13.38
2023-01-26T15:38:13.526Z,13.95
2023-01-26T15:40:15.573Z,11.18
2023-01-26T15:42:23.542Z,8.60
2023-01-26T15:44:25.028Z,6.80
2023-01-26T15:46:26.683Z,14.07
2023-01-26T15:48:31.702Z,14.32
2023-01-26T15:50:33.201Z,9.95
2023-01-26T15:52:34.654Z,10.10
2023-01-26T15:54:36.104Z,12.40
2023-01-26T15:56:37.891Z,14.65
2023-01-26T15:58:40.304Z,16.80
2023-01-26T16:00:41.901Z,13.32
2023-01-26T16:02:43.604Z,7.85
2023-01-26T16:04:45.595Z,6.40
2023-01-26T16:06:47.064Z,9.02
2023-01-26T16:08:48.890Z,17.00
2023-01-26T16:10:50.451Z,12.15
2023-01-26T16:12:52.526Z,12.07
2023-01-26T16:14:53.985Z,6.28
2023-01-26T16:16:55.427Z,8.27
2023-01-26T16:18:57.320Z,7.65
2023-01-26T16:20:58.855Z,20.55
2023-01-26T16:23:00.774Z,5.47
2023-01-26T16:25:02.226Z,10.23
2023-01-26T16:27:05.088Z,12.32
2023-01-26T16:29:06.551Z,4.13
2023-01-26T16:31:26.986Z,7.53
2023-01-26T16:33:28.468Z,5.95
2023-01-26T16:35:30.076Z,9.95
2023-01-26T16:37:31.511Z,4.93
2023-01-26T16:39:32.982Z,9.60
2023-01-26T16:41:34.484Z,9.95
2023-01-26T16:43:40.549Z,7.22
2023-01-26T16:45:41.999Z,9.63
2023-01-26T16:47:43.829Z,11.57
2023-01-26T16:49:45.895Z,9.68
2023-01-26T16:51:47.405Z,10.93
2023-01-26T16:53:49.009Z,8.50
2023-01-26T16:55:50.510Z,8.05
2023-01-26T16:57:51.959Z,6.78
2023-01-26T16:59:53.423Z,6.07
2023-01-26T17:01:55.093Z,13.57
2023-01-26T17:03:56.808Z,5.47
2023-01-26T17:05:58.585Z,5.35
2023-01-26T17:08:00.048Z,12.18
2023-01-26T17:10:01.514Z,13.20
2023-01-26T17:12:03.169Z,7.90
2023-01-26T17:14:04.644Z,10.07
2023-01-26T17:16:16.583Z,7.35
2023-01-26T17:18:18.096Z,7.95
2023-01-26T17:20:20.250Z,4.05
2023-01-26T17:22:21.778Z,12.82
2023-01-26T17:24:23.657Z,9.23
2023-01-26T17:26:25.227Z,10.98
2023-01-26T17:28:27.286Z,7.75
2023-01-26T17:30:28.991Z,8.00
2023-01-26T17:32:31.018Z,7.15
2023-01-26T17:34:32.477Z,7.75
2023-01-26T17:36:33.948Z,9.27
2023-01-26T17:38:35.978Z,12.00
2023-01-26T17:40:37.439Z,10.35
2023-01-26T17:42:39.039Z,10.40
2023-01-26T17:44:40.614Z,7.53
2023-01-26T17:46:42.067Z,7.07
2023-01-26T17:48:45.459Z,6.85
2023-01-26T17:50:48.792Z,8.30
2023-01-26T17:52:50.224Z,11.18
2023-01-26T17:54:52.026Z,9.00
2023-01-26T17:56:54.744Z,15.23
2023-01-26T17:58:56.799Z,9.57
2023-01-26T18:00:58.408Z,7.18
2023-01-26T18:02:59.905Z,5.38
2023-01-26T18:05:01.412Z,10.45
2023-01-26T18:07:03.144Z,18.98
2023-01-26T18:09:05.958Z,5.38
2023-01-26T18:11:12.804Z,10.80
2023-01-26T18:13:14.990Z,9.35
2023-01-26T18:15:16.904Z,12.45
2023-01-26T18:17:18.516Z,14.18
2023-01-26T18:19:20.066Z,13.38
2023-01-26T18:21:24.360Z,12.75
2023-01-26T18:23:25.825Z,15.05
2023-01-26T18:25:27.288Z,11.95
2023-01-26T18:27:28.736Z,11.05
2023-01-26T18:29:30.475Z,10.27
2023-01-26T18:31:40.590Z,14.02
2023-01-26T18:33:42.410Z,10.38
2023-01-26T18:35:44.105Z,7.90
2023-01-26T18:37:45.566Z,11.00
2023-01-26T18:39:47.235Z,10.73
2023-01-26T18:41:48.735Z,18.38
2023-01-26T18:43:52.042Z,14.40
2023-01-26T18:45:53.512Z,10.40
2023-01-26T18:47:55.023Z,9.85
2023-01-26T18:49:56.922Z,7.80
2023-01-26T18:51:58.459Z,13.07
2023-01-26T18:54:00.555Z,10.18
2023-01-26T18:56:04.951Z,13.63
2023-01-26T18:58:06.530Z,10.65
2023-01-26T19:00:09.108Z,16.00
2023-01-26T19:02:13.490Z,9.15
2023-01-26T19:04:17.922Z,13.75
2023-01-26T19:06:20.097Z,7.38
2023-01-26T19:08:24.632Z,9.57
2023-01-26T19:10:26.107Z,12.10
2023-01-26T19:12:27.565Z,9.18
2023-01-26T19:14:29.364Z,11.80
2023-01-26T19:16:31.771Z,9.75
2023-01-26T19:18:33.293Z,9.77
2023-01-26T19:20:34.971Z,12.50
2023-01-26T19:22:36.676Z,9.07
2023-01-26T19:24:38.253Z,7.00
2023-01-26T19:26:39.750Z,10.68
2023-01-26T19:28:41.989Z,13.50
2023-01-26T19:30:44.436Z,12.50
2023-01-26T19:33:08.493Z,13.10
2023-01-26T19:35:12.112Z,10.63
2023-01-26T19:37:15.589Z,13.80
2023-01-26T19:39:17.121Z,10.55
2023-01-26T19:41:19.931Z,9.77
2023-01-26T19:43:22.067Z,13.68
2023-01-26T19:45:23.612Z,16.27
2023-01-26T19:47:25.049Z,15.90
2023-01-26T19:49:26.535Z,14.32
2023-01-26T19:51:29.298Z,12.95
2023-01-26T19:53:32.991Z,13.23
2023-01-26T19:55:34.765Z,9.85
2023-01-26T19:57:36.322Z,13.32
2023-01-26T19:59:37.755Z,13.48
2023-01-26T20:01:39.324Z,17.83
2023-01-26T20:03:41.060Z,13.88
2023-01-26T20:05:42.486Z,12.98
2023-01-26T20:07:44.388Z,17.95
2023-01-26T20:09:46.133Z,12.90
2023-01-26T20:11:49.038Z,11.20
2023-01-26T20:13:57.759Z,8.68
2023-01-26T20:15:59.411Z,11.52
2023-01-26T20:18:02.202Z,13.52
2023-01-26T20:20:04.146Z,17.38
2023-01-26T20:22:05.697Z,18.15
2023-01-26T20:24:12.285Z,16.35
2023-01-26T20:26:14.527Z,14.45
2023-01-26T20:28:16.099Z,9.40
2023-01-26T20:30:18.408Z,15.07
2023-01-26T20:32:19.876Z,12.57
2023-01-26T20:34:21.986Z,13.00
2023-01-26T20:36:27.263Z,11.65
2023-01-26T20:38:28.863Z,14.73
2023-01-26T20:40:30.590Z,10.88
2023-01-26T20:42:32.186Z,11.80
2023-01-26T20:44:33.704Z,13.63
2023-01-26T20:46:38.169Z,9.48
2023-01-26T20:48:40.190Z,11.73
2023-01-26T20:50:41.777Z,12.40
2023-01-26T20:52:43.812Z,11.50
2023-01-26T20:54:45.794Z,13.32
2023-01-26T20:56:48.983Z,11.70
2023-01-26T20:58:53.025Z,16.17
2023-01-26T21:00:54.580Z,11.70
2023-01-26T21:02:56.069Z,10.50
2023-01-26T21:04:57.504Z,12.38
2023-01-26T21:06:59.105Z,15.70
2023-01-26T21:09:00.782Z,17.80
2023-01-26T21:11:03.294Z,9.82
2023-01-26T21:13:04.781Z,12.35
2023-01-26T21:15:06.937Z,13.95
2023-01-26T21:17:08.553Z,13.23
2023-01-26T21:19:10.041Z,13.07
2023-01-26T21:21:17.474Z,14.60
2023-01-26T21:23:18.968Z,15.43
2023-01-26T21:25:20.609Z,11.55
2023-01-26T21:27:22.064Z,13.40
2023-01-26T21:29:23.644Z,14.80
2023-01-26T21:31:26.832Z,14.50
2023-01-26T21:33:32.801Z,10.38
2023-01-26T21:35:34.261Z,14.68
2023-01-26T21:37:35.727Z,13.13
2023-01-26T21:39:37.201Z,14.05
2023-01-26T21:41:56.740Z,11.52
2023-01-26T21:44:16.780Z,10.30
2023-01-26T21:46:18.209Z,9.20
2023-01-26T21:48:28.319Z,12.20
2023-01-26T21:50:49.740Z,15.77
2023-01-26T21:53:00.283Z,20.08
2023-01-26T21:55:01.809Z,10.75
2023-01-26T21:57:25.190Z,10.68
2023-01-26T21:59:26.796Z,16.75
2023-01-26T22:01:33.556Z,10.38
2023-01-26T22:03:35.811Z,7.38
2023-01-26T22:05:37.836Z,9.23
2023-01-26T22:07:39.479Z,7.80
2023-01-26T22:09:41.244Z,6.93
2023-01-26T22:11:43.166Z,10.73
2023-01-26T22:13:44.717Z,8.52
2023-01-26T22:15:46.184Z,9.77
2023-01-26T22:17:47.626Z,7.85
2023-01-26T22:19:49.089Z,6.82
2023-01-26T22:21:50.564Z,5.50
2023-01-26T22:23:53.609Z,7.25
2023-01-26T22:25:55.062Z,9.07
2023-01-26T22:27:56.525Z,7.20
2023-01-26T22:29:58.035Z,8.75
2023-01-26T22:31:59.842Z,6.05
2023-01-26T22:34:01.437Z,9.20
2023-01-26T22:36:05.737Z,10.80
2023-01-26T22:38:07.251Z,9.88
2023-01-26T22:40:09.489Z,7.70
2023-01-26T22:42:10.968Z,10.60
2023-01-26T22:44:12.474Z,12.68
2023-01-26T22:46:14.697Z,13.05
2023-01-26T22:48:17.040Z,9.73
2023-01-26T22:50:18.533Z,9.07
2023-01-26T22:52:19.974Z,8.48
2023-01-26T22:54:21.482Z,9.00
2023-01-26T22:56:23.372Z,8.25
2023-01-26T22:58:24.840Z,9.32
2023-01-26T23:00:26.397Z,11.32
2023-01-26T23:02:27.858Z,9.68
2023-01-26T23:04:29.409Z,13.10
2023-01-26T23:06:31.098Z,15.23
2023-01-26T23:08:33.423Z,9.25
2023-01-26T23:10:34.952Z,11.55
2023-01-26T23:12:36.452Z,11.63
2023-01-26T23:14:37.914Z,8.35
2023-01-26T23:16:39.412Z,8.88
2023-01-26T23:18:41.716Z,14.20
2023-01-26T23:20:43.169Z,7.15
2023-01-26T23:22:45.198Z,9.85
2023-01-26T23:25:06.656Z,11.27
2023-01-26T23:27:08.097Z,8.85
2023-01-26T23:29:09.648Z,6.60
2023-01-26T23:31:12.894Z,11.70
2023-01-26T23:33:15.535Z,8.98
2023-01-26T23:35:17.201Z,7.13
2023-01-26T23:37:18.656Z,9.70
2023-01-26T23:39:20.083Z,5.78
2023-01-26T23:41:21.559Z,8.15
2023-01-26T23:43:23.664Z,6.20
2023-01-26T23:45:25.178Z,6.20
2023-01-26T23:47:26.707Z,10.10
2023-01-26T23:49:28.236Z,8.90
2023-01-26T23:51:29.702Z,7.85
2023-01-26T23:53:31.890Z,12.45
2023-01-26T23:55:34.090Z,5.70
2023-01-26T23:57:36.286Z,6.20
2023-01-26T23:59:37.759Z,7.32
